createdAt,value
2023-03-30T00:02:22.485Z,99617.50
2023-03-30T00:04:52.636Z,99607.53
2023-03-30T00:07:20.729Z,99588.63
2023-03-30T00:09:48.511Z,99596.50
2023-03-30T00:12:20.477Z,99582.88
2023-03-30T00:14:48.407Z,99498.22
2023-03-30T00:17:16.377Z,99574.69
2023-03-30T00:19:44.325Z,99585.38
2023-03-30T00:22:13.524Z,99589.88
2023-03-30T00:24:41.411Z,99591.19
2023-03-30T00:27:09.767Z,99586.56
2023-03-30T00:29:37.838Z,99576.16
2023-03-30T00:32:05.816Z,99572.97
2023-03-30T00:34:33.691Z,99568.91
2023-03-30T00:37:03.028Z,99570.03
2023-03-30T00:39:33.816Z,99573.41
2023-03-30T00:42:01.748Z,99504.16
2023-03-30T00:45:08.495Z,99557.00
2023-03-30T00:47:38.994Z,99553.44
2023-03-30T00:50:09.525Z,99554.34
2023-03-30T00:52:38.234Z,99545.34
2023-03-30T00:55:11.321Z,99547.22
2023-03-30T00:57:44.203Z,99545.16
2023-03-30T01:00:14.641Z,99541.31
2023-03-30T01:02:48.689Z,99531.44
2023-03-30T01:05:17.269Z,99520.38
2023-03-30T01:07:46.491Z,99503.88
2023-03-30T01:10:15.723Z,99516.66
2023-03-30T01:12:44.519Z,99516.94
2023-03-30T01:15:13.328Z,99492.41
2023-03-30T01:17:58.020Z,99515.19
2023-03-30T01:20:43.294Z,99509.97
2023-03-30T01:23:47.005Z,99506.50
2023-03-30T01:26:49.073Z,99485.59
2023-03-30T01:29:28.711Z,99500.22
2023-03-30T01:32:19.872Z,99489.59
2023-03-30T01:35:26.774Z,99490.91
2023-03-30T01:38:10.602Z,99490.59
2023-03-30T01:40:43.089Z,99480.47
2023-03-30T01:43:17.585Z,99483.25
2023-03-30T01:45:55.251Z,99457.34
2023-03-30T01:48:33.588Z,99477.22
2023-03-30T01:51:08.104Z,99464.31
2023-03-30T01:53:43.614Z,99467.09
2023-03-30T01:56:18.138Z,99469.19
2023-03-30T01:58:50.883Z,99461.97
2023-03-30T02:01:21.634Z,99443.84
2023-03-30T02:03:54.632Z,99438.84
2023-03-30T02:06:27.947Z,99446.13
2023-03-30T02:09:00.849Z,99390.03
2023-03-30T02:11:31.987Z,99386.56
2023-03-30T02:14:01.125Z,99437.25
2023-03-30T02:16:34.644Z,99437.47
2023-03-30T02:19:04.617Z,99432.31
2023-03-30T02:21:32.886Z,99423.38
2023-03-30T02:24:03.595Z,99421.19
2023-03-30T02:26:34.043Z,99415.38
2023-03-30T02:29:02.265Z,99410.66
2023-03-30T02:31:30.387Z,99405.38
2023-03-30T02:34:10.534Z,99406.09
2023-03-30T02:36:46.318Z,99408.16
2023-03-30T02:39:28.866Z,99406.44
2023-03-30T02:42:41.367Z,99391.19
2023-03-30T02:45:23.767Z,99413.78
2023-03-30T02:48:02.957Z,99401.41
2023-03-30T02:50:37.390Z,99402.25
2023-03-30T02:53:23.275Z,99408.03
2023-03-30T02:55:57.235Z,99352.28
2023-03-30T02:58:41.381Z,99409.28
2023-03-30T03:01:17.987Z,99382.25
2023-03-30T03:03:58.171Z,99370.00
2023-03-30T03:06:28.751Z,99396.88
2023-03-30T03:08:57.597Z,99379.34
2023-03-30T03:11:28.556Z,99392.00
2023-03-30T03:13:57.973Z,99389.78
2023-03-30T03:16:26.701Z,99367.91
2023-03-30T03:19:12.714Z,99380.25
2023-03-30T03:21:41.380Z,99380.09
2023-03-30T03:24:09.911Z,99380.47
2023-03-30T03:27:00.714Z,99365.72
2023-03-30T03:29:32.906Z,99360.50
2023-03-30T03:32:01.107Z,99319.25
2023-03-30T03:34:33.500Z,99343.91
2023-03-30T03:37:04.635Z,99257.72
2023-03-30T03:39:35.673Z,99333.88
2023-03-30T03:42:08.658Z,99342.00
2023-03-30T03:44:45.792Z,99341.44
2023-03-30T03:47:16.539Z,99327.00
2023-03-30T03:49:45.426Z,99319.63
2023-03-30T03:52:13.296Z,99333.41
2023-03-30T03:54:41.555Z,99317.66
2023-03-30T03:57:10.423Z,99289.97
2023-03-30T03:59:38.430Z,99313.31
2023-03-30T04:02:08.290Z,99318.66
2023-03-30T04:04:36.230Z,99319.03
2023-03-30T04:07:04.134Z,99310.22
2023-03-30T04:09:32.092Z,99274.91
2023-03-30T04:12:08.821Z,99297.38
2023-03-30T04:15:01.694Z,99270.94
2023-03-30T04:17:33.763Z,99207.16
2023-03-30T04:20:18.084Z,99246.00
2023-03-30T04:22:56.124Z,99292.50
2023-03-30T04:26:01.686Z,99299.00
2023-03-30T04:28:48.391Z,99302.94
2023-03-30T04:31:19.923Z,99286.38
2023-03-30T04:34:30.931Z,99300.25
2023-03-30T04:37:30.278Z,99300.84
2023-03-30T04:40:16.857Z,99299.00
2023-03-30T04:43:14.145Z,99297.59
2023-03-30T04:46:00.427Z,99303.47
2023-03-30T04:48:31.092Z,99297.59
2023-03-30T04:51:19.568Z,99288.00
2023-03-30T04:54:06.070Z,99303.91
2023-03-30T04:57:02.996Z,99303.34
2023-03-30T05:00:00.435Z,99289.03
2023-03-30T05:02:46.834Z,99256.25
2023-03-30T05:05:29.383Z,99294.16
2023-03-30T05:08:12.733Z,99287.72
2023-03-30T05:11:01.232Z,99280.72
2023-03-30T05:13:52.052Z,99274.28
2023-03-30T05:16:31.738Z,99278.78
2023-03-30T05:19:26.486Z,99289.53
2023-03-30T05:22:15.576Z,99266.00
2023-03-30T05:25:00.001Z,99281.75
2023-03-30T05:27:46.428Z,99284.63
2023-03-30T05:30:37.531Z,99280.56
2023-03-30T05:33:14.367Z,99273.00
2023-03-30T05:36:08.994Z,99284.72
2023-03-30T05:38:57.458Z,99292.22
2023-03-30T05:41:46.259Z,99291.59
2023-03-30T05:44:52.180Z,99287.56
2023-03-30T05:47:38.540Z,99286.69
2023-03-30T05:50:13.306Z,99292.34
2023-03-30T05:52:55.947Z,99206.44
2023-03-30T05:55:44.983Z,99261.81
2023-03-30T05:58:35.437Z,99291.94
2023-03-30T06:01:16.742Z,99284.22
2023-03-30T06:03:46.768Z,99283.25
2023-03-30T06:06:14.981Z,99289.03
2023-03-30T06:08:46.827Z,99275.50
2023-03-30T06:11:18.686Z,99272.97
2023-03-30T06:13:57.233Z,99262.88
2023-03-30T06:16:25.515Z,99266.75
2023-03-30T06:18:53.481Z,99240.38
2023-03-30T06:21:22.975Z,99226.69
2023-03-30T06:24:01.303Z,99252.69
2023-03-30T06:26:32.117Z,99250.22
2023-03-30T06:29:02.016Z,99249.13
2023-03-30T06:31:29.990Z,99202.59
2023-03-30T06:34:27.144Z,99263.47
2023-03-30T06:36:56.023Z,99257.53
2023-03-30T06:39:25.414Z,99217.22
2023-03-30T06:41:53.257Z,99254.94
2023-03-30T06:44:39.779Z,99264.00
2023-03-30T06:47:13.011Z,99268.75
2023-03-30T06:49:41.094Z,99278.03
2023-03-30T06:52:29.600Z,99274.34
2023-03-30T06:54:57.821Z,99255.16
2023-03-30T06:57:25.742Z,99245.38
2023-03-30T06:59:54.941Z,99268.22
2023-03-30T07:02:22.940Z,99264.22
2023-03-30T07:05:06.500Z,99236.41
2023-03-30T07:07:39.101Z,99255.16
2023-03-30T07:10:10.372Z,99266.47
2023-03-30T07:12:38.513Z,99231.25
2023-03-30T07:15:09.953Z,99257.09
2023-03-30T07:17:38.845Z,99242.78
2023-03-30T07:20:09.189Z,99258.06
2023-03-30T07:22:51.167Z,99206.47
2023-03-30T07:25:19.240Z,99253.00
2023-03-30T07:27:47.733Z,99244.38
2023-03-30T07:30:21.866Z,99260.22
2023-03-30T07:32:56.985Z,99264.63
2023-03-30T07:35:27.002Z,99272.78
2023-03-30T07:38:02.831Z,99252.75
2023-03-30T07:40:36.085Z,99259.38
2023-03-30T07:43:06.777Z,99257.94
2023-03-30T07:45:36.465Z,99261.69
2023-03-30T07:48:06.999Z,99269.97
2023-03-30T07:50:35.038Z,99274.38
2023-03-30T07:53:04.089Z,99276.53
2023-03-30T07:55:32.306Z,99275.22
2023-03-30T07:58:07.748Z,99256.13
2023-03-30T08:00:37.224Z,99277.47
2023-03-30T08:03:45.029Z,99268.03
2023-03-30T08:06:12.964Z,99224.09
2023-03-30T08:08:43.577Z,99282.53
2023-03-30T08:11:15.300Z,99296.56
2023-03-30T08:13:44.521Z,99245.56
2023-03-30T08:16:13.901Z,99272.91
2023-03-30T08:18:42.390Z,99278.59
2023-03-30T08:21:10.908Z,99282.41
2023-03-30T08:23:38.709Z,99280.03
2023-03-30T08:26:06.696Z,99286.19
2023-03-30T08:28:34.439Z,99263.78
2023-03-30T08:31:06.656Z,99278.66
2023-03-30T08:33:36.248Z,99273.13
2023-03-30T08:36:04.425Z,99267.22
2023-03-30T08:38:32.926Z,99275.28
2023-03-30T08:41:00.802Z,99269.78
2023-03-30T08:43:43.403Z,99269.88
2023-03-30T08:46:15.178Z,99249.69
2023-03-30T08:48:44.520Z,99266.06
2023-03-30T08:51:23.066Z,99265.47
2023-03-30T08:53:56.505Z,99267.94
2023-03-30T08:56:27.746Z,99260.28
2023-03-30T08:59:06.195Z,99260.00
2023-03-30T09:01:42.894Z,99261.56
2023-03-30T09:04:21.753Z,99258.03
2023-03-30T09:06:52.703Z,99252.03
2023-03-30T09:09:23.195Z,99255.91
2023-03-30T09:11:57.420Z,99255.53
2023-03-30T09:14:33.768Z,99206.66
2023-03-30T09:17:08.596Z,99258.09
2023-03-30T09:19:48.811Z,99247.56
2023-03-30T09:22:16.714Z,99255.28
2023-03-30T09:24:44.471Z,99252.72
2023-03-30T09:27:19.968Z,99250.81
2023-03-30T09:29:51.529Z,99249.13
2023-03-30T09:32:28.929Z,99254.25
2023-03-30T09:35:01.400Z,99245.88
2023-03-30T09:37:29.721Z,99220.63
2023-03-30T09:39:59.046Z,99239.53
2023-03-30T09:42:37.122Z,99228.19
2023-03-30T09:45:12.628Z,99253.97
2023-03-30T09:47:42.264Z,99253.22
2023-03-30T09:50:13.495Z,99262.22
2023-03-30T09:52:42.374Z,99280.28
2023-03-30T09:55:27.737Z,99274.03
2023-03-30T09:58:10.902Z,99254.72
2023-03-30T10:00:39.358Z,99263.31
2023-03-30T10:03:08.757Z,99262.34
2023-03-30T10:05:41.126Z,99274.63
2023-03-30T10:08:24.539Z,99278.22
2023-03-30T10:10:56.623Z,99276.09
2023-03-30T10:13:29.974Z,99277.78
2023-03-30T10:16:03.074Z,99263.41
2023-03-30T10:18:38.818Z,99328.50
2023-03-30T10:21:17.364Z,99260.03
2023-03-30T10:23:47.235Z,99345.75
2023-03-30T10:26:19.284Z,99362.44
2023-03-30T10:28:53.877Z,99356.69
2023-03-30T10:31:25.667Z,99363.66
2023-03-30T10:33:58.766Z,99371.41
2023-03-30T10:36:31.308Z,99365.88
2023-03-30T10:39:07.788Z,99354.00
2023-03-30T10:41:39.200Z,99343.75
2023-03-30T10:44:16.425Z,99348.19
2023-03-30T10:46:44.548Z,99321.56
2023-03-30T10:49:27.081Z,99344.13
2023-03-30T10:52:08.090Z,99327.06
2023-03-30T10:54:42.565Z,99295.38
2023-03-30T10:57:14.760Z,99343.00
2023-03-30T11:00:00.068Z,99351.47
2023-03-30T11:02:52.620Z,99347.69
2023-03-30T11:05:29.799Z,99359.88
2023-03-30T11:08:03.579Z,99344.72
2023-03-30T11:10:33.561Z,99351.38
2023-03-30T11:13:04.619Z,99354.84
2023-03-30T11:15:38.571Z,99358.28
2023-03-30T11:18:14.834Z,99354.91
2023-03-30T11:20:49.315Z,99348.69
2023-03-30T11:23:27.605Z,99341.84
2023-03-30T11:26:02.369Z,99254.19
2023-03-30T11:28:47.370Z,99321.91
2023-03-30T11:31:27.811Z,99328.13
2023-03-30T11:34:01.704Z,99326.13
2023-03-30T11:36:35.648Z,99324.78
2023-03-30T11:39:07.329Z,99337.28
2023-03-30T11:41:41.725Z,99325.16
2023-03-30T11:44:10.862Z,99320.16
2023-03-30T11:46:47.832Z,99338.72
2023-03-30T11:49:37.008Z,99311.91
2023-03-30T11:52:17.790Z,99322.03
2023-03-30T11:55:11.033Z,99325.31
2023-03-30T11:57:45.660Z,99318.94
2023-03-30T12:00:41.670Z,99319.22
2023-03-30T12:03:23.050Z,99322.13
2023-03-30T12:05:56.799Z,99307.50
2023-03-30T12:08:45.105Z,99322.38
2023-03-30T12:11:22.650Z,99309.88
2023-03-30T12:13:52.007Z,99344.16
2023-03-30T12:16:25.644Z,99349.66
2023-03-30T12:19:08.224Z,99317.59
2023-03-30T12:21:41.117Z,99314.22
2023-03-30T12:24:17.893Z,99331.69
2023-03-30T12:27:02.222Z,99314.47
2023-03-30T12:30:02.545Z,99337.28
2023-03-30T12:32:31.891Z,99341.94
2023-03-30T12:35:02.806Z,99329.28
2023-03-30T12:37:34.670Z,99286.25
2023-03-30T12:40:07.379Z,99297.00
2023-03-30T12:42:46.533Z,99341.38
2023-03-30T12:45:31.636Z,99337.88
2023-03-30T12:48:15.982Z,99346.38
2023-03-30T12:50:55.500Z,99334.03
2023-03-30T12:53:51.352Z,99333.78
2023-03-30T12:56:31.317Z,99310.22
2023-03-30T12:59:21.958Z,99324.41
2023-03-30T13:02:10.489Z,99333.63
2023-03-30T13:04:41.037Z,99334.03
2023-03-30T13:07:16.795Z,99329.16
2023-03-30T13:09:57.827Z,99322.31
2023-03-30T13:12:39.444Z,99274.09
2023-03-30T13:15:35.896Z,99329.88
2023-03-30T13:18:05.453Z,99304.84
2023-03-30T13:20:34.863Z,99306.19
2023-03-30T13:23:27.338Z,99296.59
2023-03-30T13:26:05.055Z,99320.31
2023-03-30T13:28:45.051Z,99329.53
2023-03-30T13:31:27.677Z,99331.88
2023-03-30T13:34:05.735Z,99327.44
2023-03-30T13:36:38.190Z,99327.44
2023-03-30T13:39:14.652Z,99328.06
2023-03-30T13:41:53.384Z,99331.38
2023-03-30T13:44:40.021Z,99336.41
2023-03-30T13:47:25.368Z,99329.13
2023-03-30T13:49:59.759Z,99375.47
2023-03-30T13:52:33.420Z,99368.72
2023-03-30T13:55:03.628Z,99369.47
2023-03-30T13:57:34.501Z,99357.38
2023-03-30T14:00:08.075Z,99323.63
2023-03-30T14:02:40.340Z,99324.38
2023-03-30T14:05:17.764Z,99357.44
2023-03-30T14:07:47.131Z,99355.13
2023-03-30T14:10:16.838Z,99354.88
2023-03-30T14:12:45.600Z,99363.91
2023-03-30T14:15:24.350Z,99360.66
2023-03-30T14:17:56.359Z,99362.50
2023-03-30T14:20:41.349Z,99360.06
2023-03-30T14:23:18.695Z,99361.28
2023-03-30T14:25:46.651Z,99353.34
2023-03-30T14:28:17.498Z,99346.78
2023-03-30T14:30:53.625Z,99340.63
2023-03-30T14:33:23.707Z,99194.91
2023-03-30T14:35:53.525Z,99352.69
2023-03-30T14:38:24.428Z,99343.41
2023-03-30T14:40:54.018Z,99356.34
2023-03-30T14:43:24.839Z,99353.44
2023-03-30T14:45:53.896Z,99358.44
2023-03-30T14:48:27.440Z,99362.06
2023-03-30T14:50:56.251Z,99420.44
2023-03-30T14:53:27.136Z,99440.06
2023-03-30T14:55:58.013Z,99428.91
2023-03-30T14:58:28.425Z,99455.03
2023-03-30T15:00:58.933Z,99456.38
2023-03-30T15:03:34.533Z,99462.84
2023-03-30T15:06:03.737Z,99482.03
2023-03-30T15:08:33.567Z,99490.47
2023-03-30T15:11:04.967Z,99482.50
2023-03-30T15:13:36.467Z,99446.00
2023-03-30T15:16:07.262Z,99427.63
2023-03-30T15:18:38.155Z,99445.81
2023-03-30T15:21:08.741Z,99436.00
2023-03-30T15:23:39.256Z,99436.78
2023-03-30T15:26:08.246Z,99432.19
2023-03-30T15:28:44.365Z,99427.16
2023-03-30T15:31:14.558Z,99425.63
2023-03-30T15:33:46.509Z,99431.00
2023-03-30T15:36:19.836Z,99432.84
2023-03-30T15:38:50.414Z,99431.50
2023-03-30T15:41:22.454Z,99399.69
2023-03-30T15:43:55.505Z,99437.63
2023-03-30T15:46:23.866Z,99249.03
2023-03-30T15:48:54.622Z,99433.84
2023-03-30T15:51:27.119Z,99435.44
2023-03-30T15:54:00.170Z,99414.03
2023-03-30T15:56:32.123Z,99432.84
2023-03-30T15:59:00.486Z,99429.59
2023-03-30T16:01:39.951Z,99413.47
2023-03-30T16:04:09.291Z,99401.59
2023-03-30T16:06:37.394Z,99406.13
2023-03-30T16:09:05.332Z,99401.91
2023-03-30T16:11:33.181Z,99409.22
2023-03-30T16:14:01.131Z,99407.72
2023-03-30T16:16:29.022Z,99411.50
2023-03-30T16:18:56.869Z,99411.50
2023-03-30T16:21:26.076Z,99408.09
2023-03-30T16:23:54.024Z,99414.16
2023-03-30T16:26:22.007Z,99400.31
2023-03-30T16:28:52.470Z,99398.41
2023-03-30T16:31:22.811Z,99409.03
2023-03-30T16:33:50.972Z,99410.03
2023-03-30T16:36:20.543Z,99411.84
2023-03-30T16:38:49.962Z,99406.47
2023-03-30T16:41:20.979Z,99408.84
2023-03-30T16:43:49.467Z,99401.75
2023-03-30T16:46:19.375Z,99401.72
2023-03-30T16:48:47.933Z,99397.16
2023-03-30T16:51:16.563Z,99403.66
2023-03-30T16:53:44.356Z,99406.06
2023-03-30T16:56:17.363Z,99378.69
2023-03-30T16:58:45.242Z,99397.44
2023-03-30T17:01:18.261Z,99374.28
2023-03-30T17:03:46.823Z,99410.94
2023-03-30T17:06:16.871Z,99406.50
2023-03-30T17:08:44.826Z,99411.13
2023-03-30T17:11:13.549Z,99392.88
2023-03-30T17:13:43.181Z,99414.66
2023-03-30T17:16:13.352Z,99413.34
2023-03-30T17:18:41.044Z,99412.25
2023-03-30T17:21:10.539Z,99300.56
2023-03-30T17:23:38.348Z,99424.59
2023-03-30T17:26:07.740Z,99427.66
2023-03-30T17:28:38.322Z,99423.09
2023-03-30T17:31:13.658Z,99422.16
2023-03-30T17:33:42.269Z,99406.59
2023-03-30T17:36:13.447Z,99429.38
2023-03-30T17:38:43.511Z,99433.72
2023-03-30T17:41:13.574Z,99446.75
2023-03-30T17:43:43.370Z,99426.81
2023-03-30T17:46:14.509Z,99468.06
2023-03-30T17:48:42.433Z,99425.06
2023-03-30T17:51:10.630Z,99506.34
2023-03-30T17:53:38.956Z,99511.13
2023-03-30T17:56:07.305Z,99478.47
2023-03-30T17:58:36.788Z,99481.22
2023-03-30T18:01:07.515Z,99489.38
2023-03-30T18:03:39.084Z,99454.03
2023-03-30T18:06:07.901Z,99479.22
2023-03-30T18:08:36.122Z,99474.91
2023-03-30T18:11:05.078Z,99477.78
2023-03-30T18:13:33.203Z,99471.53
2023-03-30T18:16:01.953Z,99466.53
2023-03-30T18:18:31.581Z,99472.84
2023-03-30T18:21:03.740Z,99444.56
2023-03-30T18:23:34.374Z,99456.13
2023-03-30T18:26:07.054Z,99436.88
2023-03-30T18:28:39.224Z,99450.72
2023-03-30T18:31:08.608Z,99443.38
2023-03-30T18:33:36.535Z,99463.03
2023-03-30T18:36:08.375Z,99461.34
2023-03-30T18:38:36.789Z,99365.72
2023-03-30T18:41:05.188Z,99419.22
2023-03-30T18:43:33.469Z,99444.88
2023-03-30T18:46:02.274Z,99475.75
2023-03-30T18:48:30.903Z,99467.69
2023-03-30T18:50:59.084Z,99454.59
2023-03-30T18:53:29.768Z,99491.69
2023-03-30T18:56:00.738Z,99487.44
2023-03-30T18:58:30.974Z,99488.59
2023-03-30T19:00:58.928Z,99478.31
2023-03-30T19:03:28.270Z,99457.75
2023-03-30T19:05:56.758Z,99472.94
2023-03-30T19:08:26.706Z,99481.88
2023-03-30T19:10:57.847Z,99470.19
2023-03-30T19:13:27.301Z,99489.97
2023-03-30T19:15:55.513Z,99490.53
2023-03-30T19:18:23.724Z,99453.56
2023-03-30T19:20:52.140Z,99491.19
2023-03-30T19:23:21.652Z,99487.66
2023-03-30T19:25:49.865Z,99495.81
2023-03-30T19:28:20.284Z,99480.72
2023-03-30T19:30:48.392Z,99495.16
2023-03-30T19:33:19.729Z,99487.28
2023-03-30T19:35:47.769Z,99491.50
2023-03-30T19:38:16.245Z,99473.84
2023-03-30T19:40:44.327Z,99479.50
2023-03-30T19:43:12.543Z,99436.88
2023-03-30T19:45:41.764Z,99487.59
2023-03-30T19:48:10.665Z,99495.44
2023-03-30T19:50:40.645Z,99489.28
2023-03-30T19:53:08.924Z,99481.41
2023-03-30T19:55:36.964Z,99493.19
2023-03-30T19:58:04.854Z,99483.03
2023-03-30T20:00:34.850Z,99458.63
2023-03-30T20:03:04.686Z,99489.38
2023-03-30T20:05:32.704Z,99476.53
2023-03-30T20:08:07.813Z,99469.75
2023-03-30T20:10:41.725Z,99473.16
2023-03-30T20:13:09.554Z,99470.97
2023-03-30T20:15:37.455Z,99457.72
2023-03-30T20:18:07.013Z,99441.72
2023-03-30T20:20:34.932Z,99463.75
2023-03-30T20:23:02.694Z,99451.75
2023-03-30T20:25:30.571Z,99465.09
2023-03-30T20:27:58.591Z,99433.59
2023-03-30T20:30:26.645Z,99450.97
2023-03-30T20:33:06.941Z,99451.16
2023-03-30T20:35:38.906Z,99450.41
2023-03-30T20:38:08.326Z,99452.81
2023-03-30T20:40:36.584Z,99443.69
2023-03-30T20:43:10.588Z,99422.66
2023-03-30T20:45:46.192Z,99409.34
2023-03-30T20:48:26.695Z,99440.72
2023-03-30T20:50:56.775Z,99446.59
2023-03-30T20:53:25.427Z,99448.91
2023-03-30T20:55:53.305Z,99429.56
2023-03-30T20:58:22.353Z,99441.09
2023-03-30T21:00:51.893Z,99432.03
2023-03-30T21:03:20.303Z,99444.06
2023-03-30T21:05:48.562Z,99444.41
2023-03-30T21:08:17.756Z,99413.97
2023-03-30T21:10:45.634Z,99431.56
2023-03-30T21:13:15.019Z,99402.25
2023-03-30T21:15:42.808Z,99433.03
2023-03-30T21:18:10.835Z,99422.00
2023-03-30T21:20:38.707Z,99413.72
2023-03-30T21:23:06.772Z,99414.47
2023-03-30T21:25:35.994Z,99427.34
2023-03-30T21:28:03.811Z,99422.38
2023-03-30T21:30:33.279Z,99422.16
2023-03-30T21:33:01.206Z,99416.03
2023-03-30T21:35:29.273Z,99413.81
2023-03-30T21:37:57.087Z,99412.94
2023-03-30T21:40:24.860Z,99403.44
2023-03-30T21:42:54.082Z,99401.13
2023-03-30T21:45:21.884Z,99381.13
2023-03-30T21:47:50.265Z,99398.19
2023-03-30T21:50:18.324Z,99401.72
2023-03-30T21:52:46.144Z,99391.56
2023-03-30T21:55:13.932Z,99383.59
2023-03-30T21:57:41.786Z,99379.47
2023-03-30T22:00:12.909Z,99377.94
2023-03-30T22:02:40.806Z,99377.25
2023-03-30T22:05:09.172Z,99342.59
2023-03-30T22:07:37.015Z,99374.47
2023-03-30T22:10:05.344Z,99339.47
2023-03-30T22:12:33.171Z,99356.16
2023-03-30T22:15:01.032Z,99368.13
2023-03-30T22:17:35.251Z,99306.22
2023-03-30T22:20:03.113Z,99368.41
2023-03-30T22:22:32.415Z,99327.94
2023-03-30T22:25:00.276Z,99364.59
2023-03-30T22:27:28.199Z,99366.69
2023-03-30T22:29:56.154Z,99355.94
2023-03-30T22:32:24.092Z,99356.66
2023-03-30T22:34:53.415Z,99349.66
2023-03-30T22:37:21.257Z,99362.66
2023-03-30T22:39:49.201Z,99281.84
2023-03-30T22:42:17.200Z,99354.81
2023-03-30T22:44:45.082Z,99354.59
2023-03-30T22:47:13.012Z,99352.56
2023-03-30T22:49:41.012Z,99338.56
2023-03-30T22:52:10.288Z,99358.53
2023-03-30T22:54:38.201Z,99354.59
2023-03-30T22:57:06.279Z,99346.25
2023-03-30T22:59:34.177Z,99350.94
2023-03-30T23:02:02.199Z,99238.97
2023-03-30T23:04:30.860Z,99334.44
2023-03-30T23:06:58.739Z,99332.41
2023-03-30T23:09:29.369Z,99336.25
2023-03-30T23:11:57.165Z,99307.63
2023-03-30T23:14:26.667Z,99310.81
2023-03-30T23:16:57.719Z,99299.09
2023-03-30T23:19:29.113Z,99321.56
2023-03-30T23:21:56.938Z,99324.13
2023-03-30T23:24:24.890Z,99326.16
2023-03-30T23:26:54.110Z,99325.41
2023-03-30T23:29:21.940Z,99314.72
2023-03-30T23:31:51.856Z,99316.56
2023-03-30T23:34:19.889Z,99315.91
2023-03-30T23:36:49.613Z,99315.22
2023-03-30T23:39:17.836Z,99308.69
2023-03-30T23:41:45.954Z,99310.41
2023-03-30T23:44:15.433Z,99295.91
2023-03-30T23:46:43.374Z,99314.22
2023-03-30T23:49:11.495Z,99258.63
2023-03-30T23:51:39.647Z,99301.41
2023-03-30T23:54:07.656Z,99307.06
2023-03-30T23:56:36.259Z,99302.53
2023-03-30T23:59:04.723Z,99289.88
